首页
METAR-TAF:

METAR-TAF

机场 :

大连周水子国际机场

大连, 中华人民共和国

纬度: 38-54N, 经度: 121-38E, 海拔: 97米

当前天气观测

该预报发布于29分钟前的02:00 UTC
风速6节,风向
温度 25°C
湿度 94%
气压 1010 hPa
能见度10公里或以上
少量云层高于1000英尺
散云层高于3300英尺

METAR: ZYTL 190200Z 10003MPS 9999 FEW010 SCT033 25/24 Q1010 NOSIG

时间: 10:29 (02:29 UTC)

预报

该预报发布于7小时和21分钟前的19:08 UTC
预报有效从19日的 00点(UTC)到 19日的 24点(UTC)
风速8节,风向东南
能見度: 5000
散云层高于2600英尺
小阵雨, 轻雾

TAF: ZYTL 181908Z 1900/1924 14004MPS 5000 -SHRA BR SCT026 TX29/1906Z TN24/1920Z

超过4000个机场的气象观测和天气预报(METAR&TAF报告)。

可查询的气象台以黄色和红色小点在地图上表示。

将鼠标移到小点上方,可查看气象台名称。

然后点击查看天气观测和预报。

如需切换地图:点击带黑十字的绿色按钮放大地图;点击带横线的绿色按钮缩小地图;或者点击绿色箭头查看邻近地区的地图。


METAR-TAF: